Latest Coastal Weather Observations for St Helens

IDT60701

Issued at 3:22 am EDT Saturday 19 October 2019 (issued every 10 minutes, with the page automatically refreshed every 10 minutes)

About coastal observations | Map of coastal stations | Coastal observations for TAS | Marine services | Other Formats
Station Details ID: 092120 Name: ST HELENS AERODROME Lat: -41.34 Lon: 148.28 Height: 48.0 m
Data from the previous 72 hours. | See also: Recent months at St Helens
Date/Time
EDT
Wind Sea
Height
m
Swell Vis
km
Cloud Weather Temp
°C
Press
hPa
Rain since
9am
mm
Dir  Spd
kts
Gust
kts
Height
m
Period
s
Dir
19/03:00am N 3 8 - - - - 10 - - 7.1 1005.6 0.0
19/02:30am NNW 6 9 - - - - 10 - - 7.8 1005.5 0.0
19/02:00am WSW 6 13 - - - - 10 - - 8.6 1005.0 0.0
19/01:30am WSW 11 24 - - - - 10 - - 9.1 1004.7 0.0
19/01:00am WSW 3 6 - - - - 10 - - 8.8 1005.0 0.0
19/12:30am WSW 5 11 - - - - 10 - - 9.4 1004.2 0.0
19/12:00am WSW 6 12 - - - - 10 - - 9.8 1004.1 0.0
 
Date/Time
EDT
Wind Sea
Height
m
Swell Vis
km
Cloud Weather Temp
°C
Press
hPa
Rain since
9am
mm
Dir  Spd
kts
Gust
kts
Height
m
Period
s
Dir
18/11:30pm W 11 19 - - - - 10 - - 10.6 1003.2 0.0
18/11:00pm W 14 27 - - - - 10 - - 10.9 1003.4 0.0
18/10:30pm W 11 30 - - - - 10 - - 11.3 1003.6 0.0
18/10:00pm NW 9 13 - - - - 10 - - 11.1 1003.6 0.0
18/09:30pm WNW 11 19 - - - - 10 Partly cloudy - 11.6 1003.5 0.0
18/09:00pm WNW 11 23 - - - - 10 Cloudy - 11.8 1003.1 0.0
18/08:30pm W 11 19 - - - - 10 - - 11.8 1002.8 0.0
18/08:00pm W 13 27 - - - - 10 Partly cloudy - 11.9 1002.1 0.0
18/07:30pm W 12 23 - - - - 10 Partly cloudy - 12.3 1002.1 0.0
18/07:00pm W 13 29 - - - - 10 Partly cloudy - 12.7 1000.9 0.0
18/06:30pm WNW 16 37 - - - - 10 Partly cloudy - 13.2 1000.6 0.0
18/06:00pm WNW 15 28 - - - - 10 Cloudy - 13.1 1000.4 0.0
18/05:30pm WNW 19 38 - - - - 10 Partly cloudy - 13.3 1000.8 0.0
18/05:29pm WNW 18 38 - - - - 10 Cloudy - 13.3 1000.7 0.0
18/05:01pm WNW 15 28 - - - - 10 Cloudy - 13.3 1001.6 0.0
18/05:00pm WNW 14 28 - - - - 10 Partly cloudy - 13.2 1001.6 0.0
18/04:30pm WNW 15 28 - - - - 10 Cloudy - 12.7 1002.2 0.0
18/04:08pm WNW 15 28 - - - - 10 Cloudy - 13.2 1002.3 0.0
18/04:00pm WNW 13 25 - - - - 10 Partly cloudy - 13.4 1002.4 0.0
18/03:55pm WNW 13 25 - - - - 10 Cloudy - 13.2 1002.5 0.0
18/03:30pm WNW 14 25 - - - - 10 Cloudy - 13.4 1002.9 0.0
18/03:11pm WNW 15 30 - - - - 10 Partly cloudy - 13.6 1003.1 0.0
18/03:00pm W 12 26 - - - - 10 Cloudy - 13.6 1003.1 0.0
18/02:30pm W 15 28 - - - - 10 Partly cloudy - 13.9 1003.4 0.0
18/02:00pm WNW 14 27 - - - - 10 Partly cloudy - 14.9 1003.8 0.0
18/01:30pm W 13 27 - - - - 10 Cloudy - 13.8 1004.9 0.0
18/01:00pm NW 11 23 - - - - 10 Cloudy - 13.6 1005.4 0.0
18/12:30pm NW 10 17 - - - - 10 Partly cloudy - 13.7 1005.8 0.0
18/12:11pm WNW 14 28 - - - - 10 Partly cloudy - 13.7 1006.2 0.0
18/12:00pm W 11 17 - - - - 10 Cloudy - 14.4 1006.1 0.0
18/11:34am W 15 28 - - - - 10 Partly cloudy - 14.8 1006.0 0.0
18/11:30am W 14 23 - - - - 10 Partly cloudy - 14.9 1006.1 0.0
18/11:00am WNW 17 30 - - - - 10 - - 14.5 1006.3 0.0
18/10:41am W 15 27 - - - - 10 - - 14.2 1006.5 0.0
18/10:30am W 12 24 - - - - 10 - - 13.8 1006.8 0.0
18/10:00am WSW 9 16 - - - - 10 Partly cloudy - 13.5 1007.3 0.0
18/09:30am W 9 17 - - - - 10 Partly cloudy - 13.0 1008.1 0.0
18/09:00am WSW 9 19 - - - - 25 Partly cloudy Fine 12.5 1008.5 0.4
18/08:30am WSW 9 16 - - - - 10 - - 11.7 1008.7 0.4
18/08:00am W 9 15 - - - - 10 - - 10.8 1009.0 0.4
18/07:30am WNW 9 15 - - - - 10 Partly cloudy - 9.7 1009.0 0.4
18/07:00am WSW 3 6 - - - - 10 - - 8.1 1008.7 0.4
18/06:30am WSW 6 8 - - - - 10 - - 7.0 1008.3 0.4
18/06:02am NNW 3 7 - - - - 10 Partly cloudy - 5.1 1008.5 0.2
18/06:00am NNW 3 7 - - - - 10 Cloudy - 5.2 1008.4 0.2
18/05:30am N 6 9 - - - - 6 Partly cloudy - 5.5 1008.2 0.2
18/05:16am N 4 7 - - - - 10 Partly cloudy - 5.1 1008.4 0.2
18/05:00am NNW 4 5 - - - - 10 Partly cloudy - 5.5 1008.5 0.2
18/04:30am NNW 5 6 - - - - 10 - - 6.6 1008.5 0.2
18/04:00am WNW 5 7 - - - - 10 - - 6.0 1008.6 0.2
18/03:30am NW 6 7 - - - - 10 - - 6.2 1008.7 0.2
18/03:00am NW 7 9 - - - - 10 - - 6.2 1008.8 0.2
18/02:30am NW 5 7 - - - - 10 - - 6.6 1008.8 0.2
18/02:00am NNW 6 9 - - - - 10 - - 6.7 1009.2 0.2
18/01:30am NW 4 6 - - - - 10 - - 7.5 1009.5 0.2
18/01:00am WNW 4 6 - - - - 10 - - 7.3 1009.6 0.2
18/12:30am NW 4 5 - - - - 10 - - 8.3 1009.7 0.2
18/12:00am WNW 5 7 - - - - 10 - - 8.3 1009.6 0.2
 
Date/Time
EDT
Wind Sea
Height
m
Swell Vis
km
Cloud Weather Temp
°C
Press
hPa
Rain since
9am
mm
Dir  Spd
kts
Gust
kts
Height
m
Period
s
Dir
17/11:30pm NW 4 6 - - - - 10 - - 8.9 1009.6 0.2
17/11:00pm WNW 3 5 - - - - 10 - - 9.3 1009.6 0.2
17/10:30pm WNW 3 5 - - - - 10 - - 9.5 1009.2 0.2
17/10:00pm NNW 3 6 - - - - 10 - - 9.7 1009.1 0.2
17/09:30pm WSW 1 3 - - - - 10 - - 10.1 1009.0 0.2
17/09:00pm SSW 6 8 - - - - 10 - - 9.3 1008.8 0.2
17/08:30pm SSW 4 6 - - - - 10 Partly cloudy - 9.9 1008.4 0.2
17/08:00pm SSW 5 7 - - - - 10 Partly cloudy - 10.6 1007.8 0.2
17/07:30pm S 7 10 - - - - 10 Partly cloudy - 11.0 1007.3 0.2
17/07:00pm SSE 8 14 - - - - 10 - - 11.5 1006.8 0.2
17/06:30pm S 11 16 - - - - 10 Cloudy - 11.9 1006.3 0.2
17/06:00pm S 12 19 - - - - 10 Cloudy - 12.1 1005.8 0.2
17/05:30pm S 9 15 - - - - 10 Partly cloudy - 11.8 1005.4 0.2
17/05:00pm SSE 9 14 - - - - 10 Partly cloudy - 12.0 1005.0 0.0
17/04:30pm S 9 16 - - - - 10 Partly cloudy - 12.7 1004.7 0.0
17/04:00pm S 11 17 - - - - 10 Partly cloudy - 12.8 1004.3 0.0
17/03:30pm S 13 21 - - - - 10 Partly cloudy - 13.0 1004.3 0.0
17/03:00pm S 10 19 - - - - 10 Cloudy - 13.3 1004.6 0.0
17/02:30pm SSE 10 17 - - - - 10 Partly cloudy - 13.9 1004.7 0.0
17/02:00pm S 11 19 - - - - 10 Partly cloudy - 13.8 1004.7 0.0
17/01:30pm SSE 12 20 - - - - 10 - - 13.7 1004.7 0.0
17/01:00pm S 11 19 - - - - 10 Partly cloudy - 13.4 1004.6 0.0
17/12:30pm SSE 10 17 - - - - 10 Partly cloudy - 13.3 1004.9 0.0
17/12:00pm S 10 16 - - - - 10 Cloudy - 14.2 1004.9 0.0
17/11:30am S 11 17 - - - - 10 Partly cloudy - 13.5 1004.9 0.0
17/11:00am SSE 8 16 - - - - 10 Partly cloudy - 12.6 1005.3 0.0
17/10:30am S 7 12 - - - - 10 Cloudy - 12.8 1005.1 0.0
17/10:00am S 6 11 - - - - 10 Partly cloudy - 12.0 1005.4 0.0
17/09:30am S 6 10 - - - - 10 - - 11.3 1005.5 0.0
17/09:00am SSW 5 9 - - - - 25 Mostly cloudy Fine 10.8 1005.5 0.4
17/08:30am SW 1 4 - - - - 10 Partly cloudy - 8.6 1005.8 0.4
17/08:00am W 2 5 - - - - 10 Partly cloudy - 6.7 1006.0 0.4
17/07:30am NNW 4 5 - - - - 10 Partly cloudy - 6.0 1005.9 0.4
17/07:00am W 3 5 - - - - 10 Partly cloudy - 4.9 1005.8 0.4
17/06:30am NW 5 7 - - - - 10 - - 4.8 1005.6 0.4
17/06:00am WSW 3 5 - - - - 10 - - 4.2 1005.4 0.4
17/05:30am WNW 4 6 - - - - 10 - - 4.9 1005.5 0.4
17/05:00am WNW 4 5 - - - - 10 - - 4.9 1005.4 0.4
17/04:30am NW 7 8 - - - - 10 - - 5.5 1005.6 0.4
17/04:00am NW 7 9 - - - - 10 - - 5.5 1005.8 0.4
17/03:37am NW 7 8 - - - - 10 Partly cloudy - 5.8 1006.2 0.4
17/03:30am NW 6 8 - - - - 10 Partly cloudy - 5.8 1006.4 0.4
17/03:00am NNW 7 9 - - - - 10 Cloudy - 5.7 1006.8 0.4
17/02:30am NNW 5 7 - - - - 10 Partly cloudy - 6.2 1007.0 0.4
17/02:19am NW 5 7 - - - - 10 Partly cloudy - 6.0 1007.1 0.4
17/02:00am NNW 5 7 - - - - 10 Partly cloudy - 6.5 1007.1 0.4
17/01:30am NNW 4 6 - - - - 10 Partly cloudy - 7.0 1007.6 0.4
17/01:04am WNW 4 6 - - - - 10 Partly cloudy - 7.2 1007.6 0.4
17/01:00am WNW 4 6 - - - - 10 Partly cloudy - 7.2 1007.8 0.4
17/12:33am WNW 2 5 - - - - 10 Partly cloudy - 7.6 1007.9 0.4
17/12:30am WNW 2 5 - - - - 10 Partly cloudy - 7.6 1007.9 0.4
17/12:00am NW 4 5 - - - - 10 - - 8.0 1008.0 0.4
 
Date/Time
EDT
Wind Sea
Height
m
Swell Vis
km
Cloud Weather Temp
°C
Press
hPa
Rain since
9am
mm
Dir  Spd
kts
Gust
kts
Height
m
Period
s
Dir
16/11:30pm W 3 4 - - - - 10 Partly cloudy - 8.1 1008.2 0.4
16/11:00pm WSW 1 2 - - - - 10 Partly cloudy - 8.5 1008.5 0.4
16/10:30pm WSW 2 5 - - - - 10 - - 9.1 1008.5 0.4
16/10:00pm N 4 6 - - - - 10 - - 9.8 1008.7 0.4
16/09:30pm NNW 4 6 - - - - 10 Partly cloudy - 9.8 1008.8 0.4
16/09:00pm NNW 4 7 - - - - 10 Cloudy - 10.1 1008.8 0.4
16/08:30pm NW 5 9 - - - - 10 Partly cloudy - 10.4 1008.8 0.4
16/08:00pm NNW 6 8 - - - - 10 Partly cloudy - 10.7 1008.6 0.4
16/07:41pm NNW 6 8 - - - - 10 Partly cloudy - 10.8 1008.3 0.4
16/07:30pm N 7 9 - - - - 10 Partly cloudy - 10.9 1008.2 0.4
16/07:16pm N 7 11 - - - - 10 Partly cloudy - 11.0 1008.4 0.4
16/07:00pm NNE 8 12 - - - - 10 Partly cloudy - 10.8 1008.3 0.4
16/06:51pm NNE 8 13 - - - - 10 Partly cloudy - 10.8 1008.1 0.2
16/06:33pm NNE 7 11 - - - - 10 Partly cloudy - 11.1 1008.3 0.2
16/06:30pm N 7 11 - - - - 10 Partly cloudy - 11.2 1008.4 0.2
16/06:00pm N 7 11 - - - - 10 Cloudy - 11.3 1008.6 0.2
16/05:30pm N 7 11 - - - - 10 Partly cloudy - 11.3 1008.7 0.0
16/05:00pm N 7 11 - - - - 10 Partly cloudy - 11.6 1008.8 0.0
16/04:30pm N 7 13 - - - - 10 Cloudy - 11.8 1008.5 0.0
16/04:00pm NNE 10 16 - - - - 10 Cloudy - 12.3 1008.7 0.0
16/03:30pm NNE 7 13 - - - - 10 Partly cloudy - 12.7 1008.8 0.0
16/03:00pm NNE 9 13 - - - - 10 Cloudy - 12.4 1008.9 0.0
16/02:30pm NE 11 15 - - - - 10 Partly cloudy - 13.8 1009.4 0.0
16/02:00pm NE 12 17 - - - - 10 Partly cloudy - 14.4 1009.5 0.0
16/01:30pm NE 11 16 - - - - 10 Partly cloudy - 15.0 1009.9 0.0
16/01:00pm NNE 9 15 - - - - 10 Partly cloudy - 12.9 1010.4 0.0
16/12:30pm NE 12 15 - - - - 10 Partly cloudy - 14.4 1010.6 0.0
16/12:00pm NE 10 14 - - - - 10 Cloudy - 14.2 1010.7 0.0
16/11:30am NE 10 14 - - - - 10 Partly cloudy - 13.1 1011.4 0.0
16/11:00am ENE 8 12 - - - - 10 Partly cloudy - 13.3 1011.7 0.0
16/10:30am NE 9 14 - - - - 10 Partly cloudy - 12.7 1012.0 0.0
16/10:00am ENE 7 11 - - - - 10 - - 12.8 1012.1 0.0
16/09:30am WNW 1 4 - - - - 10 - - 11.3 1012.4 0.0
16/09:00am NNW 3 5 - - - - 10 - - 11.8 1012.4 0.0
16/08:30am NNW 2 4 - - - - 10 - - 10.5 1012.7 0.0
16/08:00am NNW 5 6 - - - - 10 - - 9.2 1013.0 0.0
16/07:30am NW 5 6 - - - - 10 - - 8.4 1012.8 0.0
16/07:00am WNW 5 6 - - - - 10 - - 8.1 1012.8 0.0
16/06:30am NW 4 5 - - - - 10 Partly cloudy - 8.2 1012.8 0.0
16/06:00am CALM 0 0 - - - - 10 Cloudy - 8.7 1012.6 0.0
16/05:30am NW 3 5 - - - - 10 Partly cloudy - 8.8 1012.7 0.0
16/05:00am NW 4 6 - - - - 10 Cloudy - 9.0 1012.7 0.0
16/04:30am CALM 0 0 - - - - 10 Partly cloudy - 8.9 1012.3 0.0
16/04:00am SSW 1 3 - - - - 10 Partly cloudy - 8.7 1012.5 0.0
16/03:30am S 2 4 - - - - 10 Cloudy - 8.9 1012.6 0.0

Other formats

Comma delimited format used in spreadsheet applications
http://www.bom.gov.au/fwo/IDT60701/IDT60701.95981.axf

JavaScript Object Notation format (JSON) in row-major order
http://www.bom.gov.au/fwo/IDT60701/IDT60701.95981.json

Data quality

Most of these data are generated automatically and are frequently updated. Quality checks on data are not normally performed. It is possible for incorrect values to appear. Refer to information at About Latest Weather Observations and please check the disclaimer before using these data.